Whitefish, Canada
Current Conditions -  °F | °C
As of 7:00 AM on Monday 24 Nov 2014 (Local Time) from CYSB Reporting Station
Light Rain Light Rain  
Wind Chill: 33°   Ceiling: 200
Heat Index: 41°   Visibility: 4mi
Dew Point: 41°   Wind: 16mph
Humidity: 100%   Direction: 130°SE
Pressure: 28.98"   Gusts: 22mph
Location:  46.37°N, 81.32°W
Report Text: CYSB 241200Z 13014G19KT 4SM -RA BR OVC002 05/05 A2898 RMK SF8 PRESFR SLP824 DENSITY ALT 1200FT
Loading
Personal Weather Stations






























Interactive Weather Map New forecast layout! Learn more

10-Day Weather Forecast

Advertisements
Track Severe Weather on mobile